Time;durP1;ratioP1;P1;durP2;ratioP2;P2;SDS_P1;SDS_P2;PMS_P1;PMS_P2;Temp;Humidity;BMP_temperature;BMP_pressure;BME280_temperature;BME280_humidity;BME280_pressure;Samples;Min_cycle;Max_cycle;Signal;HPM_P1;HPM_P2
2023/06/21 00:04:05;;;;;;;4.97;4.25;;;24.10;67.40;;;;;;10326018;28;20019;-54
2023/06/21 00:09:06;;;;;;;5.93;3.90;;;24.20;67.40;;;;;;10324812;28;20023;-55
2023/06/21 00:14:07;;;;;;;5.05;4.10;;;24.10;67.30;;;;;;10323118;28;20820;-56
2023/06/21 00:19:08;;;;;;;6.40;4.78;;;24.10;67.30;;;;;;10305645;28;20089;-56
2023/06/21 00:24:08;;;;;;;4.57;3.97;;;24.10;67.30;;;;;;10323644;28;20019;-57
2023/06/21 00:29:09;;;;;;;4.13;2.97;;;24.10;67.20;;;;;;10325057;28;20062;-57
2023/06/21 00:34:10;;;;;;;5.82;3.95;;;24.10;67.20;;;;;;10321842;28;20105;-57
2023/06/21 00:39:11;;;;;;;4.55;3.65;;;24.10;67.20;;;;;;10322539;28;20426;-56
2023/06/21 00:44:11;;;;;;;5.72;4.00;;;24.10;67.10;;;;;;10324761;28;20018;-56
2023/06/21 00:49:12;;;;;;;4.00;3.47;;;24.10;67.10;;;;;;10323704;28;20098;-56
2023/06/21 00:54:16;;;;;;;4.90;3.92;;;24.10;67.10;;;;;;10322910;28;20029;-55
2023/06/21 00:59:17;;;;;;;7.28;4.22;;;24.00;67.00;;;;;;10324497;28;20033;-56
2023/06/21 01:04:17;;;;;;;4.18;3.63;;;24.00;67.10;;;;;;10324054;28;20025;-57
2023/06/21 01:09:42;;;;;;;4.80;3.70;;;24.00;67.00;;;;;;10322698;28;20105;-56
2023/06/21 01:15:03;;;;;;;4.55;3.58;;;24.00;67.00;;;;;;10323936;28;20419;-53
2023/06/21 01:20:11;;;;;;;5.05;3.95;;;24.00;67.00;;;;;;10322733;28;20034;-57
2023/06/21 01:25:50;;;;;;;5.45;4.38;;;24.00;67.00;;;;;;10320313;28;20021;-57
2023/06/21 01:30:53;;;;;;;4.27;3.70;;;24.00;66.90;;;;;;10323605;28;20015;-56
2023/06/21 01:35:55;;;;;;;4.75;3.20;;;24.00;66.90;;;;;;10322115;28;20135;-55
2023/06/21 01:40:56;;;;;;;4.63;3.60;;;24.00;66.90;;;;;;10323373;28;20026;-56
2023/06/21 01:45:59;;;;;;;4.82;3.50;;;24.00;66.90;;;;;;10328440;28;20030;-55
2023/06/21 01:51:03;;;;;;;4.95;4.03;;;24.00;66.90;;;;;;10329214;28;20089;-57
2023/06/21 01:56:09;;;;;;;5.35;3.70;;;24.00;66.90;;;;;;10329119;28;20095;-57
2023/06/21 02:01:11;;;;;;;4.25;3.63;;;24.00;66.90;;;;;;10329456;28;20031;-54
2023/06/21 02:06:12;;;;;;;5.25;3.80;;;24.00;66.90;;;;;;10329359;28;20050;-55
2023/06/21 02:11:13;;;;;;;3.92;3.47;;;24.00;66.90;;;;;;10329963;28;20390;-56
2023/06/21 02:16:15;;;;;;;5.47;3.80;;;24.00;66.90;;;;;;10330360;28;20026;-56
2023/06/21 02:21:16;;;;;;;4.75;4.32;;;23.90;66.80;;;;;;10330305;28;20073;-56
2023/06/21 02:26:17;;;;;;;5.40;4.38;;;23.90;66.80;;;;;;10328639;28;20018;-56
2023/06/21 02:31:19;;;;;;;4.25;3.75;;;24.00;66.80;;;;;;10329890;28;20022;-55
2023/06/21 02:36:20;;;;;;;4.65;4.10;;;23.90;66.80;;;;;;10324938;28;20046;-56
2023/06/21 02:41:21;;;;;;;5.30;4.10;;;23.90;66.80;;;;;;10329110;28;20034;-57
2023/06/21 02:46:21;;;;;;;5.05;4.25;;;23.90;66.80;;;;;;10329277;28;20018;-56
2023/06/21 02:51:24;;;;;;;4.55;4.10;;;24.00;66.80;;;;;;10328905;28;20022;-57
2023/06/21 02:56:25;;;;;;;4.70;4.20;;;23.90;66.80;;;;;;10327604;28;20589;-55
2023/06/21 03:01:26;;;;;;;4.90;4.38;;;23.90;66.80;;;;;;10328566;28;20030;-56
2023/06/21 03:06:29;;;;;;;5.40;3.55;;;23.90;66.80;;;;;;10327278;28;20034;-53
2023/06/21 03:11:30;;;;;;;6.40;5.07;;;23.90;66.80;;;;;;10326908;28;20030;-57
2023/06/21 03:16:30;;;;;;;4.80;4.35;;;23.90;66.80;;;;;;10327976;28;20101;-56
2023/06/21 03:21:31;;;;;;;5.90;5.05;;;23.90;66.70;;;;;;10327568;28;20485;-55
2023/06/21 03:26:32;;;;;;;6.25;5.07;;;23.90;66.80;;;;;;10325765;28;20022;-57
2023/06/21 03:31:33;;;;;;;4.47;3.92;;;23.90;66.70;;;;;;10327600;28;20030;-54
2023/06/21 03:36:34;;;;;;;6.72;4.57;;;23.90;66.70;;;;;;10324547;28;20423;-58
2023/06/21 03:41:35;;;;;;;4.72;4.07;;;23.90;66.60;;;;;;10322637;28;20125;-59
2023/06/21 03:46:36;;;;;;;7.15;4.93;;;24.00;66.60;;;;;;10320424;28;20018;-57
2023/06/21 03:51:36;;;;;;;6.55;5.20;;;23.90;66.40;;;;;;10319944;28;20023;-55
2023/06/21 03:56:38;;;;;;;5.28;4.47;;;23.90;66.30;;;;;;10312609;28;20037;-55
2023/06/21 04:01:38;;;;;;;6.13;4.35;;;23.90;66.40;;;;;;10321446;28;20120;-57
2023/06/21 04:06:39;;;;;;;5.20;4.40;;;23.90;67.20;;;;;;10323253;28;20104;-57
2023/06/21 04:11:40;;;;;;;6.80;4.45;;;23.90;66.60;;;;;;10320482;28;20045;-57
2023/06/21 04:16:41;;;;;;;6.18;4.47;;;23.90;66.60;;;;;;10322544;28;20018;-56
2023/06/21 04:21:42;;;;;;;6.53;5.03;;;23.90;66.60;;;;;;10335344;28;20041;-56
2023/06/21 04:26:42;;;;;;;5.68;4.78;;;23.90;66.70;;;;;;10323910;28;20025;-58
2023/06/21 04:31:43;;;;;;;8.18;6.03;;;23.90;66.80;;;;;;10325079;28;20165;-57
2023/06/21 04:36:47;;;;;;;5.88;5.10;;;23.90;66.80;;;;;;10324967;28;20170;-57
2023/06/21 04:41:48;;;;;;;6.85;5.43;;;23.90;66.90;;;;;;10324484;28;20038;-56
2023/06/21 04:46:48;;;;;;;7.00;5.57;;;23.80;66.90;;;;;;10325016;28;20018;-58
2023/06/21 04:51:49;;;;;;;6.38;5.78;;;23.80;66.90;;;;;;10323713;28;20660;-57
2023/06/21 04:56:50;;;;;;;6.53;5.40;;;23.90;67.00;;;;;;10324649;28;20118;-56
2023/06/21 05:01:52;;;;;;;7.53;5.38;;;23.80;66.90;;;;;;10324420;28;20124;-59
2023/06/21 05:06:53;;;;;;;9.20;6.63;;;23.80;66.90;;;;;;10317717;28;20057;-58
2023/06/21 05:11:53;;;;;;;7.95;5.82;;;23.90;66.80;;;;;;10323596;28;20053;-61
2023/06/21 05:16:54;;;;;;;8.00;6.13;;;24.00;67.30;;;;;;10322698;28;20088;-60
2023/06/21 05:21:55;;;;;;;11.00;7.40;;;24.00;67.60;;;;;;10329885;28;20030;-59
2023/06/21 05:26:55;;;;;;;10.90;6.55;;;24.00;67.90;;;;;;10332505;28;20129;-57
2023/06/21 05:31:56;;;;;;;19.23;7.32;;;24.00;67.60;;;;;;10332963;28;20068;-59
2023/06/21 05:36:57;;;;;;;16.85;6.18;;;24.00;67.40;;;;;;10331633;28;20081;-59
2023/06/21 05:41:58;;;;;;;17.25;6.68;;;24.00;67.30;;;;;;10331727;28;20054;-58
2023/06/21 05:46:59;;;;;;;14.68;8.00;;;24.00;67.60;;;;;;10331202;28;20098;-56
2023/06/21 05:51:59;;;;;;;19.80;11.10;;;24.00;67.40;;;;;;10331311;28;20105;-59
2023/06/21 05:57:04;;;;;;;18.08;13.93;;;24.00;67.70;;;;;;10330203;28;20090;-57
2023/06/21 06:02:08;;;;;;;22.95;15.27;;;24.00;68.40;;;;;;10331113;28;20039;-58
2023/06/21 06:07:08;;;;;;;22.52;15.70;;;24.00;69.70;;;;;;10329347;28;20081;-59
2023/06/21 06:12:09;;;;;;;29.92;14.07;;;24.10;69.10;;;;;;10331009;28;20413;-57
2023/06/21 06:17:10;;;;;;;25.92;15.82;;;24.10;69.10;;;;;;10328998;28;20058;-60
2023/06/21 06:22:11;;;;;;;23.15;16.30;;;24.00;69.10;;;;;;10330084;28;20026;-60
2023/06/21 06:27:12;;;;;;;22.83;14.25;;;24.00;69.00;;;;;;10330035;28;20018;-60
2023/06/21 06:32:12;;;;;;;18.15;13.73;;;24.00;68.30;;;;;;10329703;28;20054;-58
2023/06/21 06:37:13;;;;;;;15.65;13.50;;;24.00;69.10;;;;;;10344403;28;20157;-59
2023/06/21 06:42:14;;;;;;;14.38;12.52;;;24.00;68.60;;;;;;10329104;28;20105;-58
2023/06/21 06:47:15;;;;;;;13.63;11.48;;;24.00;68.30;;;;;;10329354;28;20069;-59
2023/06/21 06:52:15;;;;;;;18.55;11.23;;;24.00;69.30;;;;;;10328098;28;20014;-58
2023/06/21 06:57:16;;;;;;;15.20;11.38;;;24.00;69.10;;;;;;10343573;28;20377;-57
2023/06/21 07:02:17;;;;;;;16.15;13.18;;;24.00;68.50;;;;;;10328641;28;20047;-57
2023/06/21 07:07:17;;;;;;;17.55;11.57;;;24.00;68.70;;;;;;10324217;28;20018;-58
2023/06/21 07:12:18;;;;;;;17.67;12.40;;;24.10;68.80;;;;;;10326302;28;20028;-64
2023/06/21 07:17:21;;;;;;;13.77;10.60;;;24.10;68.80;;;;;;10326812;28;20490;-60
2023/06/21 07:22:22;;;;;;;13.85;11.20;;;24.20;68.80;;;;;;10326732;28;20058;-58
2023/06/21 07:27:22;;;;;;;15.73;12.55;;;24.20;68.90;;;;;;10326969;28;20015;-58
2023/06/21 07:32:23;;;;;;;18.23;12.60;;;24.20;68.40;;;;;;10327656;28;20097;-56
2023/06/21 07:37:24;;;;;;;15.48;11.50;;;24.30;69.60;;;;;;10327158;28;20073;-58
2023/06/21 07:42:25;;;;;;;18.90;12.10;;;24.30;69.50;;;;;;10326637;28;20691;-58
2023/06/21 07:47:25;;;;;;;13.85;12.40;;;24.20;68.80;;;;;;10321691;28;20025;-58
2023/06/21 07:52:26;;;;;;;16.35;12.18;;;24.20;68.40;;;;;;10322245;28;20069;-60
2023/06/21 07:57:27;;;;;;;17.33;12.73;;;24.20;68.50;;;;;;10317761;28;20441;-59
2023/06/21 08:02:28;;;;;;;16.55;12.43;;;24.20;68.30;;;;;;10319552;28;20717;-58
2023/06/21 08:07:28;;;;;;;15.68;13.30;;;24.20;68.30;;;;;;10319762;28;20094;-59
2023/06/21 08:12:29;;;;;;;14.27;12.13;;;24.20;68.20;;;;;;10322137;28;20723;-58
2023/06/21 08:17:29;;;;;;;13.70;11.18;;;24.20;68.10;;;;;;10322138;28;20125;-57
2023/06/21 08:22:30;;;;;;;12.25;11.05;;;24.20;68.00;;;;;;10321775;28;20070;-58
2023/06/21 08:27:31;;;;;;;12.55;11.07;;;24.20;67.90;;;;;;10323194;28;20010;-59
2023/06/21 08:32:32;;;;;;;12.57;10.63;;;24.20;67.80;;;;;;10323070;28;20018;-59
2023/06/21 08:37:32;;;;;;;12.82;10.43;;;24.20;67.80;;;;;;10322683;28;20446;-59
2023/06/21 08:42:33;;;;;;;12.20;10.40;;;24.30;67.60;;;;;;10322471;28;20120;-58
2023/06/21 08:47:35;;;;;;;15.60;9.50;;;24.30;67.60;;;;;;10321137;28;20109;-59
2023/06/21 08:52:38;;;;;;;13.35;9.73;;;24.30;67.50;;;;;;10320174;28;20030;-59
2023/06/21 08:57:51;;;;;;;12.10;10.07;;;24.30;67.20;;;;;;10320983;28;20014;-57
2023/06/21 09:03:07;;;;;;;10.73;9.60;;;24.30;67.20;;;;;;10320417;28;20035;-57
2023/06/21 09:08:08;;;;;;;10.48;9.57;;;24.30;67.20;;;;;;10323377;28;20083;-57
2023/06/21 09:13:11;;;;;;;9.85;8.52;;;24.30;67.10;;;;;;10322084;28;20099;-55
2023/06/21 09:18:13;;;;;;;9.43;8.07;;;24.40;67.30;;;;;;10314411;28;20109;-57
2023/06/21 09:23:13;;;;;;;8.82;7.93;;;24.30;67.00;;;;;;10319808;28;20031;-57
2023/06/21 09:28:14;;;;;;;11.05;8.95;;;24.30;66.90;;;;;;10303981;28;20014;-57
2023/06/21 09:33:16;;;;;;;9.10;8.15;;;24.40;66.90;;;;;;10336273;28;20014;-56
2023/06/21 09:38:32;;;;;;;9.00;7.70;;;24.40;66.80;;;;;;10319855;28;20051;-57
2023/06/21 09:43:39;;;;;;;8.25;7.20;;;24.40;66.70;;;;;;10308426;28;20034;-56
2023/06/21 09:48:40;;;;;;;8.30;6.47;;;24.40;66.70;;;;;;10308220;28;20022;-58
2023/06/21 09:53:43;;;;;;;8.85;5.82;;;24.40;66.70;;;;;;10321985;28;20375;-53
2023/06/21 09:58:45;;;;;;;6.30;5.70;;;24.40;65.70;;;;;;10322971;28;20028;-57
2023/06/21 10:03:47;;;;;;;10.02;5.82;;;24.50;65.70;;;;;;10323076;28;20027;-55
2023/06/21 10:08:51;;;;;;;8.63;5.30;;;24.50;66.10;;;;;;10329396;28;20531;-58
2023/06/21 10:13:53;;;;;;;7.82;4.60;;;24.50;66.00;;;;;;10329358;28;20018;-57
2023/06/21 10:18:58;;;;;;;11.57;5.00;;;24.60;66.10;;;;;;10329664;28;20065;-57
2023/06/21 10:23:59;;;;;;;8.50;4.60;;;24.50;66.60;;;;;;10288999;28;20379;-56
2023/06/21 10:29:03;;;;;;;7.40;4.25;;;24.50;66.40;;;;;;10328241;28;20030;-55
2023/06/21 10:34:08;;;;;;;5.90;4.00;;;24.50;66.20;;;;;;10327988;28;20097;-58
2023/06/21 10:39:09;;;;;;;6.03;4.00;;;24.50;66.10;;;;;;10327839;28;20053;-57
2023/06/21 10:44:11;;;;;;;9.70;3.60;;;24.50;65.80;;;;;;10328311;28;20014;-57
2023/06/21 10:49:12;;;;;;;11.23;4.00;;;24.50;65.00;;;;;;10327654;28;20042;-55
2023/06/21 10:54:15;;;;;;;6.68;3.67;;;24.50;65.20;;;;;;10326286;28;20109;-56
2023/06/21 10:59:18;;;;;;;6.78;4.00;;;24.50;65.20;;;;;;10326432;28;20026;-58
2023/06/21 11:04:19;;;;;;;5.72;3.65;;;24.50;65.10;;;;;;10325952;28;20022;-58
2023/06/21 11:09:20;;;;;;;4.28;2.72;;;24.50;64.90;;;;;;10326572;28;20026;-57
2023/06/21 11:14:28;;;;;;;5.47;3.40;;;24.50;64.60;;;;;;10328041;28;20029;-58
2023/06/21 11:19:29;;;;;;;3.53;2.85;;;24.50;64.10;;;;;;10326872;28;20030;-56
2023/06/21 11:24:30;;;;;;;4.15;2.67;;;24.50;63.90;;;;;;10318842;28;20043;-58
2023/06/21 11:29:37;;;;;;;4.63;2.50;;;24.50;64.00;;;;;;10308752;28;20426;-54
2023/06/21 11:34:57;;;;;;;5.45;2.97;;;24.50;63.80;;;;;;10325764;28;20053;-58
2023/06/21 11:40:01;;;;;;;5.53;2.80;;;24.50;63.70;;;;;;10320376;28;20121;-58
2023/06/21 11:45:35;;;;;;;3.88;2.55;;;24.50;63.60;;;;;;10320108;28;20033;-57
2023/06/21 11:50:47;;;;;;;4.38;2.50;;;24.60;63.60;;;;;;10320208;28;20550;-55
2023/06/21 11:55:57;;;;;;;3.35;2.13;;;24.50;63.30;;;;;;10321756;28;20030;-58
2023/06/21 12:00:58;;;;;;;3.60;2.22;;;24.60;63.50;;;;;;10320121;28;20073;-56
2023/06/21 12:06:01;;;;;;;3.92;2.30;;;24.60;63.30;;;;;;10322852;28;20093;-59
2023/06/21 12:11:05;;;;;;;2.63;2.03;;;24.60;63.00;;;;;;10309528;28;20106;-56
2023/06/21 12:16:07;;;;;;;2.67;2.08;;;24.60;62.40;;;;;;10323327;28;20494;-58
2023/06/21 12:21:08;;;;;;;2.80;1.80;;;24.60;62.50;;;;;;10323191;28;20031;-58
2023/06/21 12:26:14;;;;;;;3.30;2.13;;;24.60;62.40;;;;;;10314579;28;20014;-58
2023/06/21 12:31:16;;;;;;;3.33;1.90;;;24.60;62.30;;;;;;10323051;28;20053;-55
2023/06/21 12:36:23;;;;;;;2.88;2.03;;;24.60;62.40;;;;;;10323272;28;20050;-54
2023/06/21 12:41:26;;;;;;;3.63;2.08;;;24.60;62.40;;;;;;10320555;28;20026;-58
2023/06/21 12:46:35;;;;;;;4.03;1.80;;;24.60;62.10;;;;;;10307808;28;20073;-57
2023/06/21 12:51:36;;;;;;;8.38;2.25;;;24.70;61.80;;;;;;10312715;28;20026;-58
2023/06/21 12:56:40;;;;;;;5.18;2.22;;;24.80;62.20;;;;;;10321526;28;20030;-57
2023/06/21 13:01:42;;;;;;;5.88;2.45;;;24.70;62.10;;;;;;10321647;28;20038;-58
2023/06/21 13:06:43;;;;;;;5.28;2.50;;;24.70;62.30;;;;;;10320524;28;20054;-58
2023/06/21 13:11:45;;;;;;;5.38;2.10;;;24.70;61.50;;;;;;10320561;28;20101;-56
2023/06/21 13:16:46;;;;;;;5.25;2.00;;;24.70;60.90;;;;;;10304921;28;20563;-56
2023/06/21 13:21:47;;;;;;;5.07;2.28;;;24.70;60.50;;;;;;10321303;28;20030;-56
2023/06/21 13:26:47;;;;;;;9.48;2.72;;;24.60;60.60;;;;;;10321717;28;20501;-54
2023/06/21 13:31:48;;;;;;;15.40;4.32;;;24.60;60.60;;;;;;10321147;28;20713;-53
2023/06/21 13:36:49;;;;;;;11.38;2.70;;;24.70;61.10;;;;;;10321501;28;20130;-58
2023/06/21 13:41:49;;;;;;;6.32;2.60;;;24.70;61.20;;;;;;10339207;28;20022;-55
2023/06/21 13:46:50;;;;;;;5.82;2.20;;;24.70;61.00;;;;;;10317475;28;20098;-56
2023/06/21 13:51:51;;;;;;;7.97;2.53;;;24.70;60.50;;;;;;10321800;28;20377;-55
2023/06/21 13:56:51;;;;;;;4.28;1.90;;;24.70;60.20;;;;;;10329362;28;20509;-58
2023/06/21 14:01:52;;;;;;;6.15;2.70;;;24.70;60.20;;;;;;10326825;28;20130;-58
2023/06/21 14:06:53;;;;;;;8.18;1.95;;;24.60;60.80;;;;;;10328576;28;20097;-56
2023/06/21 14:11:53;;;;;;;7.07;2.20;;;24.60;59.60;;;;;;10327887;28;20101;-57
2023/06/21 14:16:54;;;;;;;5.40;2.28;;;24.60;59.80;;;;;;10318015;28;20478;-58
2023/06/21 14:21:55;;;;;;;6.70;1.73;;;24.60;59.40;;;;;;10327901;28;20113;-56
2023/06/21 14:26:55;;;;;;;7.13;2.50;;;24.60;59.30;;;;;;10324867;28;20053;-57
2023/06/21 14:31:56;;;;;;;9.70;3.00;;;24.60;59.30;;;;;;10324781;28;20068;-58
2023/06/21 14:36:57;;;;;;;13.30;3.38;;;24.60;59.60;;;;;;10314290;28;20054;-57
2023/06/21 14:41:58;;;;;;;8.93;3.15;;;24.60;59.80;;;;;;10298322;28;20038;-59
2023/06/21 14:46:59;;;;;;;7.85;2.47;;;24.70;63.80;;;;;;10326816;28;20046;-59
2023/06/21 14:51:59;;;;;;;5.18;2.10;;;24.90;62.90;;;;;;10315624;28;20019;-57
2023/06/21 14:57:00;;;;;;;7.32;2.78;;;25.00;64.10;;;;;;10318812;28;20608;-56
2023/06/21 15:02:01;;;;;;;11.23;2.42;;;25.20;62.80;;;;;;10326837;28;20022;-59
2023/06/21 15:07:02;;;;;;;9.52;2.45;;;25.00;62.80;;;;;;10330278;28;20137;-57
2023/06/21 15:12:04;;;;;;;7.63;2.80;;;25.00;61.50;;;;;;10329441;28;20102;-59
2023/06/21 15:17:05;;;;;;;11.50;4.00;;;25.20;62.00;;;;;;10325155;28;20031;-59
2023/06/21 15:22:06;;;;;;;13.68;4.57;;;25.20;61.10;;;;;;10310092;28;20034;-59
2023/06/21 15:27:06;;;;;;;8.23;3.15;;;25.00;61.00;;;;;;10326414;28;20030;-60
2023/06/21 15:32:07;;;;;;;13.05;4.82;;;25.00;60.20;;;;;;10309836;28;20027;-60
2023/06/21 15:37:08;;;;;;;14.35;4.30;;;25.10;62.00;;;;;;10330529;28;20060;-58
2023/06/21 15:42:09;;;;;;;12.05;3.88;;;25.20;61.10;;;;;;10316763;28;20082;-57
2023/06/21 15:47:10;;;;;;;9.70;3.30;;;25.30;60.00;;;;;;10326751;28;20102;-59
2023/06/21 15:52:10;;;;;;;10.13;4.50;;;25.20;60.00;;;;;;10326118;28;20023;-61
2023/06/21 15:57:11;;;;;;;10.25;3.05;;;25.20;59.40;;;;;;10326564;28;20030;-60
2023/06/21 16:02:12;;;;;;;9.98;2.70;;;25.20;59.20;;;;;;10324294;28;20490;-59
2023/06/21 16:07:12;;;;;;;22.55;3.38;;;25.20;58.90;;;;;;10323898;28;20018;-57
2023/06/21 16:12:13;;;;;;;18.95;4.10;;;25.20;59.40;;;;;;10319353;28;20029;-58
2023/06/21 16:17:15;;;;;;;19.77;3.95;;;25.20;59.30;;;;;;10335894;28;20464;-58
2023/06/21 16:22:15;;;;;;;10.68;3.10;;;25.10;59.60;;;;;;10318263;28;20517;-60
2023/06/21 16:27:16;;;;;;;11.52;3.92;;;25.00;58.30;;;;;;10310553;28;20172;-60
2023/06/21 16:32:17;;;;;;;8.70;3.40;;;25.00;59.10;;;;;;10322036;28;20430;-61
2023/06/21 16:37:17;;;;;;;9.63;2.97;;;25.10;58.90;;;;;;10323012;28;20168;-59
2023/06/21 16:42:18;;;;;;;5.03;3.17;;;25.10;58.50;;;;;;10321964;28;20129;-59
2023/06/21 16:47:19;;;;;;;8.05;2.92;;;25.00;58.60;;;;;;10327289;28;20050;-58
2023/06/21 16:52:21;;;;;;;9.18;3.90;;;25.00;59.20;;;;;;10323240;28;20054;-58
2023/06/21 16:57:21;;;;;;;5.47;3.53;;;25.00;58.70;;;;;;10321026;28;20374;-55
2023/06/21 17:02:22;;;;;;;8.15;4.30;;;25.00;58.70;;;;;;10319273;28;20435;-59
2023/06/21 17:07:23;;;;;;;8.20;3.80;;;25.10;58.90;;;;;;10312715;28;20183;-56
2023/06/21 17:12:24;;;;;;;7.28;3.50;;;25.00;58.70;;;;;;10337879;28;20038;-60
2023/06/21 17:17:25;;;;;;;21.17;5.38;;;25.00;58.90;;;;;;10322555;28;20092;-58
2023/06/21 17:22:25;;;;;;;9.85;3.92;;;25.00;58.50;;;;;;10322086;28;20109;-59
2023/06/21 17:27:26;;;;;;;11.85;4.05;;;25.00;58.60;;;;;;10323433;28;20026;-58
2023/06/21 17:32:27;;;;;;;7.15;3.53;;;25.00;58.60;;;;;;10319963;28;20030;-59
2023/06/21 17:37:27;;;;;;;9.07;3.70;;;25.00;58.60;;;;;;10322064;28;20061;-59
2023/06/21 17:42:28;;;;;;;8.65;3.47;;;25.00;58.50;;;;;;10321864;28;20026;-59
2023/06/21 17:47:30;;;;;;;7.75;3.53;;;24.90;58.60;;;;;;10320652;28;20026;-59
2023/06/21 17:52:31;;;;;;;7.93;2.92;;;25.00;58.70;;;;;;10318360;28;20019;-60
2023/06/21 17:57:32;;;;;;;9.60;4.03;;;24.90;58.80;;;;;;10319439;28;20281;-56
2023/06/21 18:02:32;;;;;;;4.32;3.20;;;24.90;59.10;;;;;;10321944;28;20030;-57
2023/06/21 18:07:33;;;;;;;5.88;2.97;;;24.90;59.30;;;;;;10318613;28;20089;-56
2023/06/21 18:12:34;;;;;;;5.63;2.90;;;24.90;59.40;;;;;;10318630;28;20019;-58
2023/06/21 18:17:37;;;;;;;6.22;2.95;;;24.90;59.30;;;;;;10318089;28;20069;-57
2023/06/21 18:22:38;;;;;;;7.43;3.63;;;24.90;59.20;;;;;;10306899;28;20035;-58
2023/06/21 18:27:39;;;;;;;6.40;2.30;;;24.90;58.80;;;;;;10323837;28;20440;-58
2023/06/21 18:32:40;;;;;;;8.43;2.40;;;24.90;58.60;;;;;;10326063;28;20066;-55
2023/06/21 18:37:42;;;;;;;10.13;3.05;;;24.90;58.70;;;;;;10325568;28;20050;-55
2023/06/21 18:42:43;;;;;;;6.32;2.70;;;24.90;58.40;;;;;;10324888;28;20037;-57
2023/06/21 18:47:44;;;;;;;3.45;2.10;;;24.80;58.80;;;;;;10327940;28;20106;-54
2023/06/21 18:52:44;;;;;;;4.05;2.13;;;24.80;58.70;;;;;;10326691;28;20026;-58
2023/06/21 18:57:45;;;;;;;4.53;2.55;;;24.70;59.10;;;;;;10328030;28;20032;-59
2023/06/21 19:02:46;;;;;;;5.93;2.33;;;24.80;59.30;;;;;;10299155;28;20106;-57
2023/06/21 19:07:46;;;;;;;3.15;2.00;;;24.70;58.20;;;;;;10327236;28;20130;-57
2023/06/21 19:12:47;;;;;;;3.50;1.65;;;24.60;58.60;;;;;;10328081;28;20185;-55
2023/06/21 19:17:48;;;;;;;8.38;2.30;;;24.60;59.20;;;;;;10328128;28;20068;-60
2023/06/21 19:22:49;;;;;;;3.15;2.05;;;24.60;58.90;;;;;;10319572;28;20022;-57
2023/06/21 19:27:49;;;;;;;3.03;1.80;;;24.70;59.20;;;;;;10327869;28;20029;-57
2023/06/21 19:32:50;;;;;;;4.15;1.88;;;24.70;59.40;;;;;;10327594;28;20073;-57
2023/06/21 19:37:51;;;;;;;3.10;1.75;;;24.60;59.60;;;;;;10325949;28;20050;-56
2023/06/21 19:42:52;;;;;;;3.45;2.38;;;24.60;59.60;;;;;;10325328;28;20026;-57
2023/06/21 19:47:52;;;;;;;3.30;1.90;;;24.60;59.90;;;;;;10321421;28;20026;-56
2023/06/21 19:52:53;;;;;;;3.22;1.75;;;24.60;60.10;;;;;;10324216;28;20019;-56
2023/06/21 19:57:54;;;;;;;2.30;1.67;;;24.60;60.10;;;;;;10323245;28;20462;-57
2023/06/21 20:02:54;;;;;;;3.45;2.17;;;24.60;60.20;;;;;;10316596;28;20022;-56
2023/06/21 20:07:55;;;;;;;3.75;2.08;;;24.60;60.30;;;;;;10323538;28;20007;-56
2023/06/21 20:12:56;;;;;;;3.97;2.67;;;24.60;60.30;;;;;;10325263;28;20709;-57
2023/06/21 20:17:56;;;;;;;3.58;2.17;;;24.50;60.30;;;;;;10324722;28;20058;-58
2023/06/21 20:22:57;;;;;;;3.00;2.13;;;24.60;60.40;;;;;;10325626;28;20130;-56
2023/06/21 20:27:57;;;;;;;3.30;1.77;;;24.60;60.50;;;;;;10325435;28;20033;-58
2023/06/21 20:32:58;;;;;;;5.57;3.13;;;24.60;60.50;;;;;;10324922;28;20184;-58
2023/06/21 20:37:59;;;;;;;2.67;2.00;;;24.50;60.40;;;;;;10323867;28;20125;-58
2023/06/21 20:43:00;;;;;;;2.80;1.92;;;24.50;60.50;;;;;;10324767;28;20109;-57
2023/06/21 20:48:01;;;;;;;2.60;1.80;;;24.50;60.60;;;;;;10324447;28;20046;-57
2023/06/21 20:53:02;;;;;;;2.53;2.00;;;24.50;60.70;;;;;;10323245;28;20026;-58
2023/06/21 20:58:03;;;;;;;3.95;2.08;;;24.50;60.70;;;;;;10311743;28;20030;-58
2023/06/21 21:03:04;;;;;;;2.30;1.67;;;24.50;60.90;;;;;;10323084;28;20054;-57
2023/06/21 21:08:05;;;;;;;3.58;1.83;;;24.50;60.90;;;;;;10322391;28;20054;-58
2023/06/21 21:13:07;;;;;;;1.98;1.73;;;24.50;61.00;;;;;;10324118;28;20026;-58
2023/06/21 21:18:07;;;;;;;2.28;1.90;;;24.50;61.00;;;;;;10316140;28;20520;-58
2023/06/21 21:23:09;;;;;;;3.45;1.60;;;24.50;61.10;;;;;;10322353;28;20062;-55
2023/06/21 21:28:09;;;;;;;2.45;1.65;;;24.50;61.30;;;;;;10323388;28;20072;-58
2023/06/21 21:33:10;;;;;;;2.47;1.42;;;24.40;61.10;;;;;;10323531;28;20081;-58
2023/06/21 21:38:11;;;;;;;2.30;1.80;;;24.50;61.30;;;;;;10323070;28;20046;-58
2023/06/21 21:43:11;;;;;;;2.75;1.85;;;24.40;61.30;;;;;;10323147;28;20100;-57
2023/06/21 21:48:12;;;;;;;2.08;1.45;;;24.40;61.30;;;;;;10323702;28;20026;-58
2023/06/21 21:53:13;;;;;;;3.30;1.70;;;24.40;61.30;;;;;;10323054;28;20019;-56
2023/06/21 21:58:14;;;;;;;2.20;1.33;;;24.40;61.40;;;;;;10323155;28;20065;-58
2023/06/21 22:03:15;;;;;;;2.20;1.67;;;24.40;61.40;;;;;;10328596;28;20129;-58
2023/06/21 22:08:19;;;;;;;2.17;1.50;;;24.40;61.40;;;;;;10330726;28;20018;-57
2023/06/21 22:13:19;;;;;;;3.88;2.13;;;24.40;61.40;;;;;;10330268;28;20393;-58
2023/06/21 22:18:24;;;;;;;2.78;1.90;;;24.40;61.50;;;;;;10329150;28;20023;-58
2023/06/21 22:23:28;;;;;;;4.20;1.67;;;24.30;61.50;;;;;;10330253;28;20031;-59
2023/06/21 22:28:30;;;;;;;2.22;1.73;;;24.40;61.50;;;;;;10311380;28;20018;-57
2023/06/21 22:33:32;;;;;;;3.00;1.98;;;24.40;61.50;;;;;;10313150;28;20054;-58
2023/06/21 22:38:35;;;;;;;2.28;1.50;;;24.30;61.50;;;;;;10327249;28;20406;-58
2023/06/21 22:43:35;;;;;;;2.72;1.80;;;24.30;61.50;;;;;;10314888;28;20030;-58
2023/06/21 22:48:36;;;;;;;2.08;1.30;;;24.30;61.50;;;;;;10327804;28;20018;-59
2023/06/21 22:53:37;;;;;;;3.05;1.90;;;24.30;61.50;;;;;;10329033;28;20581;-58
2023/06/21 22:58:37;;;;;;;2.65;1.70;;;24.30;61.50;;;;;;10327786;28;20035;-59
2023/06/21 23:03:38;;;;;;;3.45;2.13;;;24.30;61.60;;;;;;10328568;28;20114;-57
2023/06/21 23:08:44;;;;;;;1.95;1.77;;;24.30;61.60;;;;;;10328566;28;20026;-58
2023/06/21 23:13:44;;;;;;;2.25;1.63;;;24.30;61.60;;;;;;10323098;28;20030;-56
2023/06/21 23:18:45;;;;;;;2.83;1.48;;;24.30;61.60;;;;;;10328098;28;20700;-58
2023/06/21 23:23:46;;;;;;;1.73;1.42;;;24.30;61.60;;;;;;10327643;28;20113;-58
2023/06/21 23:28:48;;;;;;;2.35;1.67;;;24.30;61.60;;;;;;10326289;28;20057;-58
2023/06/21 23:33:49;;;;;;;1.80;1.33;;;24.30;61.60;;;;;;10326471;28;20026;-58
2023/06/21 23:38:58;;;;;;;2.72;1.80;;;24.30;61.50;;;;;;10326019;28;20078;-58
2023/06/21 23:43:59;;;;;;;2.67;1.70;;;24.30;61.60;;;;;;10326861;28;20113;-57
2023/06/21 23:49:02;;;;;;;3.13;1.80;;;24.30;61.60;;;;;;10326666;28;20117;-58
2023/06/21 23:54:03;;;;;;;2.83;1.75;;;24.30;61.60;;;;;;10325654;28;20026;-57
2023/06/21 23:59:03;;;;;;;2.03;1.75;;;24.20;61.60;;;;;;10325094;28;20450;-59
